Time;durP1;ratioP1;P1;durP2;ratioP2;P2;SDS_P1;SDS_P2;PMS_P1;PMS_P2;Temp;Humidity;BMP_temperature;BMP_pressure;BME280_temperature;BME280_humidity;BME280_pressure;Samples;Min_cycle;Max_cycle;Signal;HPM_P1;HPM_P2
2022/06/04 00:00:15;;;;;;;7.50;6.80;;;18.90;80.80;;;19.26;61.45;97611.47;5006318;28;20084;-39
2022/06/04 00:02:46;;;;;;;7.35;6.53;;;18.90;81.30;;;19.23;61.69;97604.63;5005355;28;20058;-39
2022/06/04 00:05:18;;;;;;;7.95;6.70;;;18.90;81.00;;;19.23;61.47;97599.25;5006331;28;20068;-39
2022/06/04 00:07:47;;;;;;;7.65;6.55;;;18.90;81.20;;;19.23;61.46;97601.94;5007499;28;20828;-39
2022/06/04 00:16:13;;;;;;;8.32;7.38;;;18.80;80.60;;;19.18;61.64;97598.25;5026840;28;20075;-39
2022/06/04 00:18:42;;;;;;;8.70;7.90;;;18.80;81.30;;;19.15;61.89;97595.97;5006918;28;20058;-39
2022/06/04 00:21:12;;;;;;;10.65;8.10;;;18.80;82.30;;;19.13;62.03;97606.16;5006095;28;20068;-39
2022/06/04 00:23:41;;;;;;;9.07;7.65;;;18.80;82.50;;;19.11;62.04;97608.25;5006568;28;20080;-39
2022/06/04 00:26:13;;;;;;;9.18;8.38;;;18.80;82.70;;;19.07;62.30;97605.13;5007104;28;20062;-39
2022/06/04 00:28:41;;;;;;;10.52;8.75;;;18.70;84.00;;;19.05;62.47;97610.75;5005975;28;20050;-39
2022/06/04 00:31:09;;;;;;;9.88;8.88;;;18.70;84.50;;;19.07;62.49;97608.66;5006883;28;20141;-39
2022/06/04 00:33:39;;;;;;;10.13;8.73;;;18.70;84.30;;;19.05;62.60;97618.84;5006446;28;20045;-39
2022/06/04 00:36:07;;;;;;;10.85;9.75;;;18.70;84.80;;;19.05;63.04;97620.72;5006246;28;20245;-39
2022/06/04 00:38:35;;;;;;;9.85;8.80;;;18.70;87.50;;;19.04;62.93;97613.69;5006768;28;20050;-39
2022/06/04 00:41:21;;;;;;;9.05;8.15;;;18.70;88.30;;;18.96;62.88;97605.81;5005676;28;20053;-39
2022/06/04 00:44:10;;;;;;;10.48;8.15;;;18.60;88.90;;;18.92;62.59;97597.34;5006209;28;20256;-39
2022/06/04 00:46:40;;;;;;;10.18;9.18;;;18.60;90.10;;;18.91;63.16;97598.38;5004492;28;20064;-39
2022/06/04 00:49:18;;;;;;;13.75;8.80;;;18.60;89.40;;;18.91;63.15;97590.28;5006185;28;20064;-39
2022/06/04 00:51:51;;;;;;;9.80;8.77;;;18.60;88.70;;;18.91;63.18;97603.78;5005812;28;20107;-39
2022/06/04 00:54:20;;;;;;;10.15;9.13;;;18.60;88.60;;;18.89;63.06;97604.00;5004899;28;20049;-39
2022/06/04 00:57:35;;;;;;;10.70;9.65;;;18.60;88.10;;;18.89;62.75;97603.16;5005587;28;20050;-39
2022/06/04 01:00:28;;;;;;;10.30;9.30;;;18.60;89.00;;;18.88;62.73;97604.19;5006630;28;20061;-39
2022/06/04 01:03:42;;;;;;;11.40;9.68;;;18.60;88.10;;;18.83;62.72;97612.13;5005968;28;20514;-39
2022/06/04 01:06:31;;;;;;;12.23;10.55;;;18.50;90.90;;;18.82;63.93;97605.88;5006274;28;20268;-39
2022/06/04 01:10:06;;;;;;;11.65;10.48;;;18.50;93.60;;;18.77;63.11;97596.78;5005674;28;20212;-39
2022/06/04 01:13:30;;;;;;;12.13;10.90;;;18.50;95.10;;;18.76;63.23;97598.63;5005683;28;20052;-39
2022/06/04 01:16:27;;;;;;;11.82;10.57;;;18.50;95.80;;;18.74;63.58;97597.19;5010084;28;20056;-39
2022/06/04 01:19:41;;;;;;;15.15;11.35;;;18.40;95.10;;;18.67;63.54;97611.53;5008719;28;20103;-39
2022/06/04 01:22:18;;;;;;;11.68;10.55;;;18.40;98.30;;;18.67;64.14;97610.72;5009860;28;20048;-39
2022/06/04 01:25:37;;;;;;;13.95;10.75;;;18.30;99.10;;;18.61;63.73;97608.84;5009865;28;20069;-39
2022/06/04 01:28:14;;;;;;;12.10;10.50;;;18.30;99.90;;;18.59;64.29;97603.69;5009932;28;20053;-39
2022/06/04 01:30:49;;;;;;;12.27;10.98;;;18.20;99.90;;;18.59;64.60;97601.00;5010057;28;20128;-39
2022/06/04 01:33:31;;;;;;;12.70;11.40;;;18.30;99.90;;;18.58;64.22;97588.56;5009308;28;20064;-39
2022/06/04 01:36:35;;;;;;;11.98;10.73;;;18.20;99.90;;;18.57;64.04;97589.59;5009356;28;20045;-39
2022/06/04 01:39:10;;;;;;;12.40;11.15;;;18.30;99.90;;;18.60;64.41;97593.72;5007327;28;20068;-39
2022/06/04 01:41:44;;;;;;;13.00;11.68;;;18.30;99.90;;;18.59;64.57;97590.22;5007831;28;20064;-39
2022/06/04 01:44:22;;;;;;;12.77;11.45;;;18.30;99.90;;;18.57;64.52;97592.31;5008542;28;20065;-39
2022/06/04 01:46:56;;;;;;;13.98;12.48;;;18.30;99.90;;;18.54;64.84;97592.72;5025467;28;20375;-39
2022/06/04 01:49:39;;;;;;;12.48;10.93;;;18.30;99.90;;;18.53;64.52;97599.13;5007750;28;20084;-39
2022/06/04 01:52:20;;;;;;;13.27;11.88;;;18.20;99.90;;;18.53;64.77;97609.91;5008864;28;20046;-40
2022/06/04 01:54:57;;;;;;;16.05;11.85;;;18.30;99.90;;;18.53;64.94;97604.53;5009133;28;20601;-39
2022/06/04 01:58:08;;;;;;;13.50;11.65;;;18.30;99.90;;;18.53;64.99;97609.09;5008728;28;20046;-39
2022/06/04 02:01:00;;;;;;;12.88;11.48;;;18.20;99.90;;;18.53;65.61;97609.09;5007636;28;20061;-39
2022/06/04 02:03:50;;;;;;;12.63;11.32;;;18.30;99.90;;;18.47;65.59;97621.56;5009764;28;20070;-40
2022/06/04 02:06:35;;;;;;;12.57;11.40;;;18.20;99.90;;;18.42;65.96;97618.69;5007843;28;20052;-39
2022/06/04 02:09:15;;;;;;;13.25;11.65;;;18.10;99.90;;;18.35;66.18;97612.47;5008780;28;20424;-39
2022/06/04 02:11:56;;;;;;;15.30;12.43;;;18.00;99.90;;;18.30;66.18;97605.03;5007914;28;20052;-39
2022/06/04 02:14:24;;;;;;;14.27;12.90;;;17.90;99.90;;;18.28;66.60;97604.41;5006841;28;20042;-39
2022/06/04 02:17:00;;;;;;;15.27;12.60;;;17.90;99.90;;;18.27;66.52;97600.06;5023756;28;20057;-39
2022/06/04 02:19:27;;;;;;;13.70;12.30;;;17.90;99.90;;;18.24;66.71;97604.00;5007477;28;20240;-39
2022/06/04 02:21:55;;;;;;;14.40;13.00;;;17.90;99.90;;;18.22;66.61;97602.56;5006503;28;20058;-39
2022/06/04 02:24:23;;;;;;;19.50;13.57;;;17.80;99.90;;;18.17;66.82;97597.81;5009407;28;20050;-39
2022/06/04 02:26:52;;;;;;;13.60;12.20;;;17.70;99.90;;;18.15;66.91;97594.50;5007043;28;20049;-39
2022/06/04 02:29:20;;;;;;;15.93;13.20;;;17.80;99.90;;;18.16;66.75;97601.53;5005591;28;20045;-39
2022/06/04 02:32:15;;;;;;;16.73;14.10;;;17.80;99.90;;;18.15;66.50;97597.19;5023049;28;20267;-39
2022/06/04 02:35:07;;;;;;;15.25;13.65;;;17.80;99.90;;;18.12;66.87;97592.22;5008531;28;20056;-39
2022/06/04 02:38:05;;;;;;;15.38;13.85;;;17.70;99.90;;;18.10;66.83;97592.41;5008447;28;20236;-39
2022/06/04 02:40:54;;;;;;;14.57;12.85;;;17.80;99.90;;;18.08;66.82;97593.69;5004417;28;20720;-39
2022/06/04 02:43:34;;;;;;;17.02;14.80;;;17.70;99.90;;;18.01;67.71;97588.31;5006391;28;20061;-39
2022/06/04 02:46:40;;;;;;;16.70;14.95;;;17.60;99.90;;;17.99;67.29;97589.53;5008114;28;20062;-39
2022/06/04 02:49:15;;;;;;;15.20;13.65;;;17.60;99.90;;;17.99;67.65;97587.69;5008077;28;20056;-39
2022/06/04 02:51:49;;;;;;;15.98;13.98;;;17.70;99.90;;;18.02;67.71;97586.44;5024681;28;20053;-39
2022/06/04 02:54:37;;;;;;;15.38;13.32;;;17.70;99.90;;;18.02;67.30;97592.66;5005854;28;20044;-39
2022/06/04 02:57:06;;;;;;;16.38;13.48;;;17.70;99.90;;;18.04;67.53;97595.97;5005728;28;20218;-39
2022/06/04 02:59:35;;;;;;;15.35;13.60;;;17.80;99.90;;;18.00;67.61;97586.66;5007412;28;20526;-39
2022/06/04 03:02:06;;;;;;;14.55;13.10;;;17.70;99.90;;;17.99;67.51;97581.47;5006401;28;20062;-39
2022/06/04 03:05:07;;;;;;;16.52;14.82;;;17.70;99.90;;;17.94;67.15;97575.91;5007622;28;20041;-39
2022/06/04 03:07:41;;;;;;;15.38;13.85;;;17.70;99.90;;;17.93;67.63;97575.03;5007513;28;20058;-39
2022/06/04 03:10:21;;;;;;;17.40;14.02;;;17.60;99.90;;;17.93;67.33;97574.22;5007029;28;20079;-39
2022/06/04 03:12:50;;;;;;;15.13;13.55;;;17.60;99.90;;;17.93;67.63;97580.44;5005970;28;20249;-39
2022/06/04 03:15:18;;;;;;;14.52;13.02;;;17.60;99.90;;;17.94;67.51;97578.59;5008080;28;20052;-39
2022/06/04 03:17:48;;;;;;;15.63;14.02;;;17.60;99.90;;;17.97;67.53;97581.69;5007348;28;20049;-39
2022/06/04 03:20:22;;;;;;;14.90;13.27;;;17.60;99.90;;;17.99;67.47;97585.00;5006866;28;20241;-39
2022/06/04 03:22:51;;;;;;;15.25;13.30;;;17.70;99.90;;;18.02;67.38;97581.06;5008567;28;20372;-39
2022/06/04 03:25:20;;;;;;;16.23;12.38;;;17.80;99.90;;;18.01;67.41;97585.63;5007759;28;20243;-39
2022/06/04 03:27:48;;;;;;;14.30;12.77;;;17.70;99.90;;;18.03;67.23;97583.53;5007512;28;20255;-39
2022/06/04 03:30:17;;;;;;;17.10;14.85;;;17.70;99.90;;;18.02;67.49;97581.06;5006242;28;20041;-39
2022/06/04 03:32:45;;;;;;;15.27;13.23;;;17.80;99.90;;;18.04;67.79;97584.38;5006498;28;20080;-39
2022/06/04 03:35:14;;;;;;;16.17;14.52;;;17.80;99.90;;;18.04;67.83;97576.28;5007779;28;20064;-39
2022/06/04 03:37:42;;;;;;;19.38;15.77;;;17.80;99.90;;;18.06;67.91;97585.78;5006673;28;20046;-39
2022/06/04 03:40:12;;;;;;;19.95;16.90;;;17.80;99.90;;;18.06;67.77;97585.78;5007703;28;20068;-39
2022/06/04 03:42:41;;;;;;;17.83;15.18;;;17.80;99.90;;;18.07;67.87;97592.03;5021532;28;20062;-39
2022/06/04 03:45:11;;;;;;;19.60;15.27;;;17.90;99.90;;;18.12;67.91;97596.78;5007426;28;20072;-39
2022/06/04 03:47:40;;;;;;;18.63;16.63;;;17.90;99.90;;;18.14;67.89;97602.78;5006706;28;20262;-39
2022/06/04 03:50:16;;;;;;;18.70;16.80;;;17.90;99.90;;;18.16;67.68;97606.09;5006639;28;20065;-39
2022/06/04 03:52:46;;;;;;;19.52;16.75;;;18.00;99.90;;;18.18;67.71;97606.72;5005590;28;20042;-39
2022/06/04 03:55:16;;;;;;;17.55;15.73;;;17.90;99.90;;;18.20;67.49;97610.84;5006228;28;20060;-39
2022/06/04 03:57:52;;;;;;;19.00;15.93;;;18.00;99.90;;;18.19;67.34;97605.69;5007792;28;20049;-39
2022/06/04 04:00:27;;;;;;;16.95;15.25;;;17.90;99.90;;;18.18;67.43;97615.63;5006860;28;20050;-39
2022/06/04 04:03:11;;;;;;;16.45;14.68;;;17.90;99.90;;;18.20;67.11;97620.78;5006965;28;20058;-39
2022/06/04 04:05:49;;;;;;;15.73;13.93;;;18.00;99.90;;;18.23;67.28;97623.91;5006166;28;20049;-39
2022/06/04 04:08:20;;;;;;;15.07;13.30;;;18.00;99.90;;;18.25;67.46;97627.22;5007194;28;20378;-39
2022/06/04 04:10:48;;;;;;;14.57;13.07;;;18.10;99.90;;;18.29;67.42;97627.63;5007487;28;20420;-39
2022/06/04 04:13:17;;;;;;;14.32;12.82;;;18.10;99.90;;;18.32;67.44;97615.59;5005891;28;20426;-39
2022/06/04 04:15:46;;;;;;;14.98;11.93;;;18.20;99.90;;;18.32;67.49;97611.03;5006606;28;20063;-39
2022/06/04 04:18:14;;;;;;;13.43;12.07;;;18.30;99.90;;;18.37;67.50;97605.81;5007815;28;20232;-39
2022/06/04 04:20:45;;;;;;;11.82;10.63;;;18.30;99.90;;;18.44;67.32;97603.13;5006339;28;20375;-39
2022/06/04 04:23:13;;;;;;;12.50;10.57;;;18.40;99.90;;;18.48;67.30;97594.41;5006645;28;20076;-39
2022/06/04 04:25:41;;;;;;;12.10;10.82;;;18.40;99.90;;;18.52;67.25;97593.97;5006763;28;20061;-39
2022/06/04 04:28:09;;;;;;;11.70;10.55;;;18.50;99.90;;;18.54;67.12;97592.72;5005519;28;20049;-39
2022/06/04 04:30:37;;;;;;;13.15;11.18;;;18.40;99.90;;;18.54;67.07;97600.81;5005093;28;20236;-39
2022/06/04 04:33:06;;;;;;;12.30;11.00;;;18.50;99.90;;;18.56;66.96;97606.81;5005464;28;20220;-39
2022/06/04 04:35:36;;;;;;;11.95;10.60;;;18.50;99.90;;;18.54;67.02;97594.59;5006946;28;20622;-40
2022/06/04 04:38:04;;;;;;;10.80;9.52;;;18.50;99.90;;;18.55;67.01;97590.84;5007053;28;20742;-39
2022/06/04 04:40:32;;;;;;;11.10;9.63;;;18.50;99.90;;;18.56;66.98;97589.81;5005969;28;20049;-39
2022/06/04 04:43:00;;;;;;;11.35;10.13;;;18.50;99.90;;;18.55;66.82;97588.97;5005956;28;20075;-39
2022/06/04 04:45:29;;;;;;;11.15;10.05;;;18.40;99.90;;;18.57;66.84;97584.22;5008949;28;20246;-39
2022/06/04 04:47:57;;;;;;;12.40;9.43;;;18.50;99.90;;;18.54;67.05;97586.50;5010647;28;20256;-39
2022/06/04 04:50:34;;;;;;;11.05;10.05;;;18.50;99.90;;;18.58;66.98;97585.03;5010655;28;20129;-39
2022/06/04 04:53:06;;;;;;;11.43;9.52;;;18.50;99.90;;;18.63;67.10;97582.50;5009931;28;20058;-39
2022/06/04 04:55:36;;;;;;;10.82;9.77;;;18.50;99.90;;;18.69;66.98;97587.06;5009002;28;20056;-39
2022/06/04 04:58:05;;;;;;;10.48;9.48;;;18.60;99.90;;;18.74;66.95;97591.81;5009987;28;20240;-40
2022/06/04 05:00:34;;;;;;;10.55;9.45;;;18.70;99.90;;;18.78;66.88;97603.81;5009519;28;20053;-39
2022/06/04 05:03:02;;;;;;;11.13;10.02;;;18.80;99.90;;;18.82;66.77;97613.16;5009278;28;20259;-39
2022/06/04 05:05:30;;;;;;;10.70;9.68;;;18.80;99.90;;;18.85;66.73;97610.88;5010456;28;20057;-39
2022/06/04 05:07:58;;;;;;;14.98;10.27;;;18.90;99.90;;;18.85;66.88;97616.25;5010011;28;20069;-39
2022/06/04 05:10:26;;;;;;;10.70;9.60;;;18.80;99.90;;;18.91;66.95;97619.16;5007546;28;20343;-40
2022/06/04 05:12:56;;;;;;;13.05;9.32;;;18.90;99.90;;;18.99;66.76;97629.69;5009199;28;20350;-39
2022/06/04 05:15:24;;;;;;;9.93;8.93;;;19.00;99.90;;;19.06;66.88;97636.69;5009769;28;20162;-40
2022/06/04 05:17:52;;;;;;;9.38;8.38;;;19.10;99.90;;;19.15;66.75;97641.84;5009595;28;20053;-40
2022/06/04 05:20:20;;;;;;;8.85;7.90;;;19.20;99.90;;;19.25;66.67;97642.19;5010077;28;20041;-39
2022/06/04 05:22:48;;;;;;;9.45;7.53;;;19.40;99.90;;;19.32;66.62;97642.97;5009495;28;20046;-39
2022/06/04 05:25:16;;;;;;;8.18;7.38;;;19.40;99.90;;;19.39;66.43;97648.34;5009524;28;20839;-39
2022/06/04 05:27:44;;;;;;;10.07;8.43;;;19.50;99.90;;;19.39;66.30;97651.88;5008668;28;20088;-38
2022/06/04 05:30:12;;;;;;;9.18;7.45;;;19.50;99.90;;;19.43;66.09;97653.09;5042204;28;20064;-39
2022/06/04 05:32:41;;;;;;;9.55;8.50;;;19.50;99.90;;;19.42;66.32;97648.72;5048418;28;20366;-38
2022/06/04 05:35:09;;;;;;;8.30;7.50;;;19.50;99.90;;;19.44;66.34;97643.09;5048701;28;20049;-38
2022/06/04 05:37:38;;;;;;;9.15;8.25;;;19.50;99.90;;;19.51;66.21;97651.19;5048690;28;20053;-38
2022/06/04 05:40:07;;;;;;;10.38;9.38;;;19.50;99.90;;;19.56;66.21;97648.63;5046040;28;20757;-38
2022/06/04 05:42:35;;;;;;;9.48;8.48;;;19.60;99.90;;;19.62;66.16;97653.19;5047780;28;20049;-39
2022/06/04 05:45:05;;;;;;;9.93;8.93;;;19.70;99.90;;;19.65;66.14;97658.94;5049239;28;20057;-38
2022/06/04 05:47:32;;;;;;;9.52;8.55;;;19.70;99.90;;;19.62;66.01;97674.78;5048887;28;20065;-39
2022/06/04 05:50:00;;;;;;;10.52;9.43;;;19.60;99.90;;;19.50;66.24;97688.13;5048528;28;20248;-39
2022/06/04 05:52:28;;;;;;;10.57;9.57;;;19.50;99.90;;;19.54;66.30;97680.44;5047454;28;20056;-39
2022/06/04 05:54:56;;;;;;;11.95;10.75;;;19.40;99.90;;;19.50;66.06;97690.00;5047970;28;20274;-39
2022/06/04 05:57:25;;;;;;;11.93;10.15;;;19.40;99.90;;;19.43;66.02;97692.75;5047823;28;20339;-39
2022/06/04 05:59:52;;;;;;;13.18;11.85;;;19.20;99.90;;;19.33;66.02;97686.97;5048626;28;20078;-39
2022/06/04 06:02:20;;;;;;;12.85;11.55;;;19.10;99.90;;;19.14;66.43;97688.75;5048172;28;20053;-39
2022/06/04 06:04:48;;;;;;;13.55;12.18;;;18.80;99.90;;;18.99;66.43;97702.50;5048099;28;20367;-39
2022/06/04 06:07:16;;;;;;;14.07;12.65;;;18.60;99.90;;;18.99;66.91;97726.78;5048417;28;20059;-38
2022/06/04 06:09:44;;;;;;;13.88;12.30;;;18.70;99.90;;;18.99;66.90;97743.81;5047617;28;20045;-39
2022/06/04 06:12:13;;;;;;;15.13;13.55;;;18.70;99.90;;;18.95;67.20;97769.56;5047272;28;20045;-39
2022/06/04 06:14:41;;;;;;;13.35;11.95;;;18.70;99.90;;;18.90;67.55;97780.13;5048464;28;20057;-39
2022/06/04 06:17:09;;;;;;;13.85;12.35;;;18.60;99.90;;;18.91;67.76;97781.81;5047965;28;20053;-39
2022/06/04 06:19:37;;;;;;;12.80;11.40;;;18.70;99.90;;;18.90;67.92;97793.63;5047676;28;20053;-39
2022/06/04 06:22:05;;;;;;;12.07;10.98;;;18.70;99.90;;;18.93;68.20;97797.78;5047619;28;20052;-39
2022/06/04 06:24:34;;;;;;;11.27;10.07;;;18.70;99.90;;;18.91;68.53;97802.56;5047883;28;20347;-39
2022/06/04 06:27:02;;;;;;;11.60;10.50;;;18.70;99.90;;;18.91;68.59;97800.69;5047690;28;20053;-38
2022/06/04 06:29:31;;;;;;;11.73;10.48;;;18.70;99.90;;;18.81;69.83;97809.22;5047730;28;20217;-39
2022/06/04 06:32:00;;;;;;;13.48;10.60;;;18.70;99.90;;;18.62;71.44;97808.16;5047261;28;20071;-39
2022/06/04 06:34:28;;;;;;;11.93;10.75;;;18.50;99.90;;;18.60;71.18;97801.31;5047458;28;20347;-39
2022/06/04 06:36:56;;;;;;;12.60;9.93;;;18.40;99.90;;;18.57;71.68;97791.81;5048971;28;20056;-39
2022/06/04 06:39:25;;;;;;;13.13;11.00;;;18.30;99.90;;;18.46;72.75;97784.34;5047830;28;20063;-39
2022/06/04 06:41:53;;;;;;;11.80;10.60;;;18.20;99.90;;;18.46;72.93;97768.16;5047575;28;20356;-40
2022/06/04 06:44:35;;;;;;;12.15;10.85;;;18.10;99.90;;;18.46;72.73;97758.19;5046728;28;20057;-40
2022/06/04 06:47:03;;;;;;;15.52;11.77;;;18.20;99.90;;;18.50;72.77;97739.75;5047730;28;20059;-39
2022/06/04 06:49:31;;;;;;;13.77;12.30;;;18.30;99.90;;;18.56;72.80;97721.91;5047470;28;20044;-39
2022/06/04 06:52:02;;;;;;;14.77;13.23;;;18.40;99.90;;;18.55;72.97;97712.16;5047010;28;20040;-39
2022/06/04 06:54:34;;;;;;;14.60;13.20;;;18.40;99.90;;;18.56;72.85;97717.34;5047977;28;20362;-39
2022/06/04 06:57:09;;;;;;;14.27;12.20;;;18.40;99.90;;;18.53;73.07;97709.66;5047469;28;20055;-39
2022/06/04 06:59:43;;;;;;;15.02;13.32;;;18.40;99.90;;;18.52;73.15;97709.91;5046324;28;20278;-40
2022/06/04 07:02:11;;;;;;;16.95;13.45;;;18.40;99.90;;;18.49;73.10;97714.66;5047530;28;20290;-40
2022/06/04 07:04:39;;;;;;;17.02;14.95;;;18.30;99.90;;;18.53;73.18;97725.00;5036670;28;20045;-40
2022/06/04 07:07:11;;;;;;;15.85;14.15;;;18.30;99.90;;;18.53;73.19;97720.44;5034386;28;20240;-40
2022/06/04 07:09:41;;;;;;;14.02;12.18;;;18.30;99.90;;;18.56;73.27;97714.63;5028908;28;20059;-39
2022/06/04 07:12:12;;;;;;;15.10;13.57;;;18.40;99.90;;;18.51;73.67;97717.13;5027088;28;20053;-40
2022/06/04 07:14:40;;;;;;;14.43;13.00;;;18.30;99.90;;;18.55;73.44;97725.63;5027252;28;20049;-39
2022/06/04 07:17:08;;;;;;;14.93;13.32;;;18.40;99.90;;;18.57;73.60;97718.16;5027790;28;20437;-40
2022/06/04 07:19:37;;;;;;;16.58;14.15;;;18.40;99.90;;;18.57;73.71;97727.09;5026633;28;20041;-40
2022/06/04 07:22:04;;;;;;;15.43;13.75;;;18.40;99.90;;;18.68;73.74;97722.91;5025710;28;20071;-39
2022/06/04 07:24:32;;;;;;;16.95;14.63;;;18.60;99.90;;;18.82;73.96;97738.03;5026954;28;20049;-39
2022/06/04 07:27:00;;;;;;;16.60;14.80;;;18.80;99.90;;;18.99;73.99;97737.59;5027344;28;20060;-39
2022/06/04 07:29:28;;;;;;;17.40;15.63;;;19.00;99.90;;;19.16;73.76;97743.34;5027707;28;20407;-39
2022/06/04 07:31:56;;;;;;;19.80;14.18;;;19.20;99.90;;;19.28;73.30;97736.22;5025192;28;20046;-39
2022/06/04 07:34:24;;;;;;;16.30;14.75;;;19.40;99.90;;;19.38;73.34;97741.97;5026501;28;20053;-39
2022/06/04 07:36:53;;;;;;;16.33;14.63;;;19.40;99.90;;;19.46;73.19;97736.34;5027805;28;20049;-39
2022/06/04 07:39:22;;;;;;;14.45;13.05;;;19.50;99.90;;;19.52;72.97;97731.94;5026916;28;20055;-39
2022/06/04 07:41:52;;;;;;;16.05;14.45;;;19.50;99.90;;;19.50;72.82;97725.94;5024929;28;20060;-39
2022/06/04 07:44:24;;;;;;;15.18;13.65;;;19.50;99.90;;;19.52;72.69;97729.22;5026777;28;20048;-39
2022/06/04 07:46:55;;;;;;;15.60;14.15;;;19.50;99.90;;;19.55;72.70;97726.13;5026647;28;20053;-39
2022/06/04 07:49:23;;;;;;;15.57;13.98;;;19.60;99.90;;;19.58;72.46;97720.28;5026353;28;20071;-39
2022/06/04 07:51:52;;;;;;;15.15;13.60;;;19.50;99.90;;;19.63;72.35;97714.22;5025287;28;20056;-39
2022/06/04 07:54:21;;;;;;;17.35;15.57;;;19.60;99.90;;;19.66;72.71;97721.91;5034638;28;20045;-39
2022/06/04 07:56:49;;;;;;;16.55;14.85;;;19.70;99.90;;;19.73;72.19;97722.69;5041058;28;20041;-39
2022/06/04 07:59:17;;;;;;;15.43;13.73;;;19.80;99.90;;;19.83;72.28;97719.53;5043415;28;20049;-40
2022/06/04 08:01:45;;;;;;;15.40;13.77;;;19.90;99.90;;;19.93;72.32;97716.31;5049290;28;20051;-40
2022/06/04 08:04:14;;;;;;;15.63;14.13;;;20.00;99.90;;;19.98;71.94;97705.69;5049378;28;20060;-40
2022/06/04 08:06:43;;;;;;;14.85;13.38;;;20.20;99.90;;;20.03;71.88;97714.00;5052998;28;20164;-40
2022/06/04 08:09:12;;;;;;;15.32;13.75;;;20.30;99.90;;;20.11;71.97;97713.72;5049114;28;20049;-40
2022/06/04 08:11:41;;;;;;;14.68;13.23;;;20.40;99.90;;;20.22;71.29;97713.00;5044635;28;20055;-40
2022/06/04 08:14:16;;;;;;;15.50;14.00;;;20.60;99.90;;;20.34;71.68;97715.78;5043755;28;20036;-40
2022/06/04 08:16:53;;;;;;;15.55;14.05;;;20.70;99.90;;;20.48;71.10;97729.19;5047234;28;20045;-40
2022/06/04 08:19:24;;;;;;;14.52;13.23;;;20.70;99.90;;;20.54;70.61;97731.81;5045300;28;20072;-40
2022/06/04 08:21:52;;;;;;;15.40;13.90;;;20.80;99.90;;;20.63;70.88;97730.53;5042094;28;20045;-40
2022/06/04 08:24:21;;;;;;;14.07;12.45;;;20.90;99.90;;;20.74;70.92;97730.81;5041485;28;20064;-40
2022/06/04 08:26:53;;;;;;;16.38;14.77;;;21.10;99.90;;;20.85;70.96;97744.44;5041692;28;20244;-40
2022/06/04 08:29:21;;;;;;;16.58;13.43;;;21.20;99.90;;;20.92;70.47;97751.66;5041885;28;20045;-40
2022/06/04 08:31:49;;;;;;;14.68;13.23;;;21.20;99.90;;;21.01;70.49;97751.16;5042157;28;20094;-40
2022/06/04 08:34:18;;;;;;;14.15;12.68;;;21.40;99.90;;;21.13;70.16;97750.38;5041015;28;20185;-40
2022/06/04 08:36:45;;;;;;;14.85;13.45;;;21.50;99.90;;;21.19;70.12;97752.16;5041578;28;20058;-40
2022/06/04 08:39:14;;;;;;;14.23;12.88;;;21.60;99.90;;;21.29;69.79;97744.34;5041991;28;20057;-40
2022/06/04 08:42:11;;;;;;;12.27;11.18;;;21.70;99.90;;;21.40;69.66;97748.16;5037217;28;20053;-40
2022/06/04 08:44:50;;;;;;;13.30;11.95;;;21.90;99.90;;;21.46;69.50;97747.31;5040243;28;20045;-40
2022/06/04 08:47:35;;;;;;;13.68;12.32;;;21.90;99.90;;;21.49;69.25;97740.59;5039914;28;20229;-40
2022/06/04 08:50:19;;;;;;;13.25;12.02;;;22.00;99.90;;;21.51;69.35;97749.31;5040549;28;20248;-40
2022/06/04 08:52:54;;;;;;;13.82;12.38;;;22.00;99.90;;;21.63;69.14;97752.88;5040292;28;20042;-40
2022/06/04 08:58:57;;;;;;;14.27;12.90;;;22.20;99.90;;;21.82;69.38;97759.91;5039302;28;20059;-40
2022/06/04 09:01:35;;;;;;;14.27;12.98;;;22.20;99.90;;;21.92;68.91;97774.78;5041739;28;20049;-39
2022/06/04 09:04:25;;;;;;;14.85;13.25;;;22.30;99.90;;;21.95;69.13;97780.56;5041008;28;20049;-39
2022/06/04 09:07:01;;;;;;;14.30;12.90;;;22.30;99.90;;;21.96;68.32;97784.09;5041436;28;20054;-40
2022/06/04 09:09:52;;;;;;;14.70;13.30;;;22.20;99.90;;;21.90;68.59;97785.03;5041310;28;20053;-39
2022/06/04 09:12:32;;;;;;;20.38;14.02;;;22.00;99.90;;;21.83;68.33;97791.38;5025980;28;20057;-40
2022/06/04 09:15:15;;;;;;;14.15;12.80;;;21.90;99.90;;;21.80;68.90;97791.00;5040990;28;20045;-40
2022/06/04 09:17:51;;;;;;;14.70;13.27;;;21.90;99.90;;;21.72;68.69;97792.16;5041519;28;20056;-40
2022/06/04 09:20:47;;;;;;;14.45;12.93;;;21.80;99.90;;;21.61;68.48;97793.75;5040250;28;20055;-41
2022/06/04 09:23:34;;;;;;;13.73;12.32;;;21.60;99.90;;;21.46;68.31;97798.75;5041088;28;20049;-40
2022/06/04 09:26:14;;;;;;;13.65;12.30;;;21.40;99.90;;;21.49;68.50;97800.19;5041492;28;20060;-40
2022/06/04 09:28:56;;;;;;;15.07;13.60;;;21.40;99.90;;;21.50;68.25;97802.66;5041086;28;20046;-40
2022/06/04 09:31:46;;;;;;;16.70;14.55;;;21.50;99.90;;;21.50;68.69;97802.66;5042169;28;20045;-40
2022/06/04 09:34:37;;;;;;;16.02;14.45;;;21.50;99.90;;;21.43;68.75;97812.72;5043217;28;20046;-40
2022/06/04 09:37:07;;;;;;;;;;;21.50;99.90;;;21.35;68.76;97815.72;5043449;28;20056;-40
2022/06/04 09:39:39;;;;;;;14.43;13.00;;;21.50;99.90;;;21.44;68.51;97819.78;5044354;28;20204;-40
2022/06/04 09:42:13;;;;;;;14.60;13.23;;;21.50;99.90;;;21.47;68.36;97815.81;5044507;28;20045;-40
2022/06/04 09:45:02;;;;;;;13.00;11.75;;;21.60;99.90;;;21.56;68.25;97820.69;5043798;28;20045;-41
2022/06/04 09:47:45;;;;;;;13.40;12.10;;;21.70;99.90;;;21.62;67.99;97825.22;5044835;28;20045;-40
2022/06/04 09:50:32;;;;;;;13.40;12.20;;;21.80;99.90;;;21.70;68.15;97818.66;5043133;28;20071;-40
2022/06/04 09:53:00;;;;;;;12.23;11.02;;;21.90;99.90;;;21.75;67.81;97824.22;5044434;28;20256;-40
2022/06/04 09:55:30;;;;;;;12.85;11.50;;;21.90;99.90;;;21.66;67.06;97831.00;5043678;28;20239;-40
2022/06/04 09:58:27;;;;;;;13.30;11.25;;;21.80;99.90;;;21.56;67.18;97828.84;5042198;28;20049;-40
2022/06/04 10:01:07;;;;;;;10.25;9.23;;;21.70;99.90;;;21.58;67.10;97842.97;5043949;28;20045;-40
2022/06/04 10:03:38;;;;;;;10.50;9.40;;;21.60;99.90;;;21.54;67.13;97839.06;5044273;28;20064;-40
2022/06/04 10:06:11;;;;;;;8.52;7.72;;;21.60;99.90;;;21.56;66.64;97842.38;5043587;28;20045;-40
2022/06/04 10:11:52;;;;;;;11.77;8.65;;;21.70;99.90;;;21.67;66.78;97843.47;5042968;28;20055;-41
2022/06/04 10:14:39;;;;;;;10.88;9.10;;;21.80;99.90;;;21.76;66.81;97855.66;5042438;28;20080;-40
2022/06/04 10:17:19;;;;;;;12.07;9.55;;;21.90;99.90;;;21.73;66.73;97856.13;5042965;28;20370;-40
2022/06/04 10:19:54;;;;;;;12.48;10.45;;;21.90;99.90;;;21.66;67.30;97855.38;5043990;28;20240;-40
2022/06/04 10:22:23;;;;;;;11.02;9.93;;;21.80;99.90;;;21.63;67.26;97855.81;5043546;28;20056;-40
2022/06/04 10:24:53;;;;;;;11.38;10.25;;;21.70;99.90;;;21.69;67.41;97862.22;5043341;28;20343;-40
2022/06/04 10:27:55;;;;;;;12.02;10.82;;;21.70;99.90;;;21.70;66.92;97858.47;5043532;28;20063;-40
2022/06/04 10:30:29;;;;;;;9.77;8.75;;;21.90;99.90;;;21.73;67.04;97866.97;5042957;28;20061;-40
2022/06/04 10:33:14;;;;;;;8.23;7.53;;;21.80;99.90;;;21.75;66.38;97869.44;5041834;28;20059;-39
2022/06/04 10:35:57;;;;;;;11.05;10.05;;;21.80;99.90;;;21.67;66.17;97857.03;5043111;28;20055;-40
2022/06/04 10:38:33;;;;;;;11.43;9.43;;;21.70;99.90;;;21.63;66.11;97867.50;5044158;28;20339;-40
2022/06/04 10:41:20;;;;;;;16.65;11.35;;;21.70;99.90;;;21.53;65.95;97867.19;5043123;28;20061;-41
2022/06/04 10:44:24;;;;;;;13.38;10.35;;;21.50;99.90;;;21.42;66.16;97859.78;5041571;28;20048;-40
2022/06/04 10:47:08;;;;;;;16.27;11.18;;;21.40;99.90;;;21.41;66.19;97858.97;5043680;28;20059;-40
2022/06/04 10:49:51;;;;;;;10.40;9.48;;;21.40;99.90;;;21.40;66.41;97862.75;5042167;28;20047;-39
2022/06/04 10:52:41;;;;;;;12.18;10.90;;;21.40;99.90;;;21.24;66.63;97869.56;5043320;28;20075;-40